sensor_id;sensor_type;location;lat;lon;timestamp;P1;durP1;ratioP1;P2;durP2;ratioP2
54145;SDS011;65909;49.422;7.738;2022-12-18T00:01:03;22.98;;;9.70;;
54145;SDS011;65909;49.422;7.738;2022-12-18T00:03:31;35.00;;;11.40;;
54145;SDS011;65909;49.422;7.738;2022-12-18T00:05:58;28.65;;;11.73;;
54145;SDS011;65909;49.422;7.738;2022-12-18T00:08:23;32.05;;;10.07;;
54145;SDS011;65909;49.422;7.738;2022-12-18T00:10:49;20.13;;;9.75;;
54145;SDS011;65909;49.422;7.738;2022-12-18T00:13:14;23.42;;;10.70;;
54145;SDS011;65909;49.422;7.738;2022-12-18T00:15:39;21.80;;;8.90;;
54145;SDS011;65909;49.422;7.738;2022-12-18T00:18:05;24.42;;;9.60;;
54145;SDS011;65909;49.422;7.738;2022-12-18T00:20:31;24.25;;;9.77;;
54145;SDS011;65909;49.422;7.738;2022-12-18T00:23:00;27.75;;;11.13;;
54145;SDS011;65909;49.422;7.738;2022-12-18T00:25:26;27.15;;;10.85;;
54145;SDS011;65909;49.422;7.738;2022-12-18T00:27:51;27.13;;;10.68;;
54145;SDS011;65909;49.422;7.738;2022-12-18T00:30:17;23.70;;;9.95;;
54145;SDS011;65909;49.422;7.738;2022-12-18T00:32:42;20.70;;;8.88;;
54145;SDS011;65909;49.422;7.738;2022-12-18T00:35:07;18.10;;;9.02;;
54145;SDS011;65909;49.422;7.738;2022-12-18T00:37:33;23.60;;;9.77;;
54145;SDS011;65909;49.422;7.738;2022-12-18T00:39:59;28.10;;;10.68;;
54145;SDS011;65909;49.422;7.738;2022-12-18T00:42:24;27.98;;;10.50;;
54145;SDS011;65909;49.422;7.738;2022-12-18T00:45:08;24.13;;;9.47;;
54145;SDS011;65909;49.422;7.738;2022-12-18T00:47:33;33.55;;;13.27;;
54145;SDS011;65909;49.422;7.738;2022-12-18T00:49:59;24.95;;;10.85;;
54145;SDS011;65909;49.422;7.738;2022-12-18T00:52:24;26.33;;;9.63;;
54145;SDS011;65909;49.422;7.738;2022-12-18T00:54:49;28.77;;;11.95;;
54145;SDS011;65909;49.422;7.738;2022-12-18T00:57:15;41.85;;;11.90;;
54145;SDS011;65909;49.422;7.738;2022-12-18T00:59:40;27.98;;;11.57;;
54145;SDS011;65909;49.422;7.738;2022-12-18T01:02:05;32.67;;;10.45;;
54145;SDS011;65909;49.422;7.738;2022-12-18T01:04:31;26.17;;;11.45;;
54145;SDS011;65909;49.422;7.738;2022-12-18T01:06:57;29.00;;;12.02;;
54145;SDS011;65909;49.422;7.738;2022-12-18T01:09:22;30.58;;;12.98;;
54145;SDS011;65909;49.422;7.738;2022-12-18T01:11:48;42.42;;;13.35;;
54145;SDS011;65909;49.422;7.738;2022-12-18T01:14:13;24.30;;;10.02;;
54145;SDS011;65909;49.422;7.738;2022-12-18T01:16:38;34.40;;;12.07;;
54145;SDS011;65909;49.422;7.738;2022-12-18T01:19:04;31.30;;;11.32;;
54145;SDS011;65909;49.422;7.738;2022-12-18T01:21:29;34.58;;;12.35;;
54145;SDS011;65909;49.422;7.738;2022-12-18T01:23:55;34.38;;;11.80;;
54145;SDS011;65909;49.422;7.738;2022-12-18T01:26:21;46.85;;;12.10;;
54145;SDS011;65909;49.422;7.738;2022-12-18T01:28:48;42.03;;;12.82;;
54145;SDS011;65909;49.422;7.738;2022-12-18T01:31:18;30.80;;;12.70;;
54145;SDS011;65909;49.422;7.738;2022-12-18T01:33:47;31.35;;;11.40;;
54145;SDS011;65909;49.422;7.738;2022-12-18T01:36:17;25.35;;;11.45;;
54145;SDS011;65909;49.422;7.738;2022-12-18T01:38:44;33.38;;;11.80;;
54145;SDS011;65909;49.422;7.738;2022-12-18T01:41:10;32.97;;;11.45;;
54145;SDS011;65909;49.422;7.738;2022-12-18T01:43:52;29.05;;;12.07;;
54145;SDS011;65909;49.422;7.738;2022-12-18T01:46:25;29.98;;;11.88;;
54145;SDS011;65909;49.422;7.738;2022-12-18T01:48:56;17.83;;;8.45;;
54145;SDS011;65909;49.422;7.738;2022-12-18T01:51:23;26.95;;;11.27;;
54145;SDS011;65909;49.422;7.738;2022-12-18T01:53:51;27.60;;;11.65;;
54145;SDS011;65909;49.422;7.738;2022-12-18T01:56:17;22.65;;;10.90;;
54145;SDS011;65909;49.422;7.738;2022-12-18T01:58:58;34.45;;;11.70;;
54145;SDS011;65909;49.422;7.738;2022-12-18T02:01:28;27.33;;;12.13;;
54145;SDS011;65909;49.422;7.738;2022-12-18T02:03:55;31.35;;;12.27;;
54145;SDS011;65909;49.422;7.738;2022-12-18T02:06:23;29.27;;;13.05;;
54145;SDS011;65909;49.422;7.738;2022-12-18T02:09:02;25.23;;;9.60;;
54145;SDS011;65909;49.422;7.738;2022-12-18T02:11:45;31.25;;;11.73;;
54145;SDS011;65909;49.422;7.738;2022-12-18T02:17:25;29.10;;;9.73;;
54145;SDS011;65909;49.422;7.738;2022-12-18T02:22:54;34.38;;;10.85;;
54145;SDS011;65909;49.422;7.738;2022-12-18T02:28:33;22.95;;;10.43;;
54145;SDS011;65909;49.422;7.738;2022-12-18T02:31:04;32.53;;;11.73;;
54145;SDS011;65909;49.422;7.738;2022-12-18T02:33:32;23.17;;;9.32;;
54145;SDS011;65909;49.422;7.738;2022-12-18T02:35:59;28.77;;;10.98;;
54145;SDS011;65909;49.422;7.738;2022-12-18T02:38:26;28.23;;;11.82;;
54145;SDS011;65909;49.422;7.738;2022-12-18T02:40:54;31.83;;;12.40;;
54145;SDS011;65909;49.422;7.738;2022-12-18T02:43:21;43.22;;;12.43;;
54145;SDS011;65909;49.422;7.738;2022-12-18T02:45:47;38.60;;;12.75;;
54145;SDS011;65909;49.422;7.738;2022-12-18T02:48:15;34.78;;;12.80;;
54145;SDS011;65909;49.422;7.738;2022-12-18T02:50:48;35.05;;;12.27;;
54145;SDS011;65909;49.422;7.738;2022-12-18T02:53:36;35.28;;;12.23;;
54145;SDS011;65909;49.422;7.738;2022-12-18T02:56:17;29.77;;;10.82;;
54145;SDS011;65909;49.422;7.738;2022-12-18T02:58:58;36.10;;;12.65;;
54145;SDS011;65909;49.422;7.738;2022-12-18T03:01:30;27.85;;;11.27;;
54145;SDS011;65909;49.422;7.738;2022-12-18T03:04:04;23.58;;;9.85;;
54145;SDS011;65909;49.422;7.738;2022-12-18T03:06:37;25.98;;;12.73;;
54145;SDS011;65909;49.422;7.738;2022-12-18T03:09:07;26.00;;;9.40;;
54145;SDS011;65909;49.422;7.738;2022-12-18T03:11:37;26.00;;;10.90;;
54145;SDS011;65909;49.422;7.738;2022-12-18T03:14:23;21.98;;;9.50;;
54145;SDS011;65909;49.422;7.738;2022-12-18T03:16:53;27.38;;;11.43;;
54145;SDS011;65909;49.422;7.738;2022-12-18T03:19:24;29.17;;;11.07;;
54145;SDS011;65909;49.422;7.738;2022-12-18T03:21:53;19.88;;;10.13;;
54145;SDS011;65909;49.422;7.738;2022-12-18T03:24:21;27.05;;;11.90;;
54145;SDS011;65909;49.422;7.738;2022-12-18T03:26:51;29.73;;;10.57;;
54145;SDS011;65909;49.422;7.738;2022-12-18T03:32:15;27.80;;;11.80;;
54145;SDS011;65909;49.422;7.738;2022-12-18T03:34:48;30.98;;;12.20;;
54145;SDS011;65909;49.422;7.738;2022-12-18T03:37:16;26.63;;;11.65;;
54145;SDS011;65909;49.422;7.738;2022-12-18T03:39:42;35.03;;;12.88;;
54145;SDS011;65909;49.422;7.738;2022-12-18T03:42:13;29.20;;;12.40;;
54145;SDS011;65909;49.422;7.738;2022-12-18T03:47:35;27.77;;;10.38;;
54145;SDS011;65909;49.422;7.738;2022-12-18T03:55:20;33.83;;;11.23;;
54145;SDS011;65909;49.422;7.738;2022-12-18T03:57:47;19.80;;;9.65;;
54145;SDS011;65909;49.422;7.738;2022-12-18T04:00:15;20.60;;;10.40;;
54145;SDS011;65909;49.422;7.738;2022-12-18T04:02:43;43.60;;;12.65;;
54145;SDS011;65909;49.422;7.738;2022-12-18T04:05:12;26.25;;;10.57;;
54145;SDS011;65909;49.422;7.738;2022-12-18T04:07:38;37.75;;;10.52;;
54145;SDS011;65909;49.422;7.738;2022-12-18T04:10:06;25.60;;;11.40;;
54145;SDS011;65909;49.422;7.738;2022-12-18T04:12:33;11.75;;;8.75;;
54145;SDS011;65909;49.422;7.738;2022-12-18T04:14:58;27.40;;;10.45;;
54145;SDS011;65909;49.422;7.738;2022-12-18T04:17:23;26.80;;;10.95;;
54145;SDS011;65909;49.422;7.738;2022-12-18T04:19:49;21.90;;;10.13;;
54145;SDS011;65909;49.422;7.738;2022-12-18T04:22:14;23.02;;;9.82;;
54145;SDS011;65909;49.422;7.738;2022-12-18T04:24:40;16.70;;;8.82;;
54145;SDS011;65909;49.422;7.738;2022-12-18T04:27:05;28.70;;;10.98;;
54145;SDS011;65909;49.422;7.738;2022-12-18T04:29:31;25.50;;;11.23;;
54145;SDS011;65909;49.422;7.738;2022-12-18T04:31:57;27.23;;;11.55;;
54145;SDS011;65909;49.422;7.738;2022-12-18T04:34:22;16.40;;;8.95;;
54145;SDS011;65909;49.422;7.738;2022-12-18T04:36:47;24.90;;;11.13;;
54145;SDS011;65909;49.422;7.738;2022-12-18T04:39:13;21.25;;;9.30;;
54145;SDS011;65909;49.422;7.738;2022-12-18T04:41:43;22.80;;;9.63;;
54145;SDS011;65909;49.422;7.738;2022-12-18T04:44:08;23.50;;;9.27;;
54145;SDS011;65909;49.422;7.738;2022-12-18T04:46:34;22.10;;;10.70;;
54145;SDS011;65909;49.422;7.738;2022-12-18T04:48:59;27.65;;;10.55;;
54145;SDS011;65909;49.422;7.738;2022-12-18T04:51:24;16.92;;;9.50;;
54145;SDS011;65909;49.422;7.738;2022-12-18T04:53:50;25.20;;;9.98;;
54145;SDS011;65909;49.422;7.738;2022-12-18T04:56:15;18.13;;;8.52;;
54145;SDS011;65909;49.422;7.738;2022-12-18T04:58:41;23.30;;;9.20;;
54145;SDS011;65909;49.422;7.738;2022-12-18T05:01:09;22.95;;;10.25;;
54145;SDS011;65909;49.422;7.738;2022-12-18T05:03:35;20.25;;;9.63;;
54145;SDS011;65909;49.422;7.738;2022-12-18T05:06:01;21.00;;;9.50;;
54145;SDS011;65909;49.422;7.738;2022-12-18T05:08:28;23.85;;;9.32;;
54145;SDS011;65909;49.422;7.738;2022-12-18T05:11:03;20.50;;;10.30;;
54145;SDS011;65909;49.422;7.738;2022-12-18T05:13:31;25.77;;;11.70;;
54145;SDS011;65909;49.422;7.738;2022-12-18T05:15:57;17.70;;;9.02;;
54145;SDS011;65909;49.422;7.738;2022-12-18T05:18:22;16.45;;;10.68;;
54145;SDS011;65909;49.422;7.738;2022-12-18T05:20:49;23.95;;;10.95;;
54145;SDS011;65909;49.422;7.738;2022-12-18T05:23:16;19.98;;;10.20;;
54145;SDS011;65909;49.422;7.738;2022-12-18T05:25:41;24.10;;;11.25;;
54145;SDS011;65909;49.422;7.738;2022-12-18T05:28:07;23.83;;;10.68;;
54145;SDS011;65909;49.422;7.738;2022-12-18T05:30:32;28.98;;;12.02;;
54145;SDS011;65909;49.422;7.738;2022-12-18T05:32:57;26.38;;;10.88;;
54145;SDS011;65909;49.422;7.738;2022-12-18T05:35:23;25.10;;;8.80;;
54145;SDS011;65909;49.422;7.738;2022-12-18T05:37:48;29.10;;;10.82;;
54145;SDS011;65909;49.422;7.738;2022-12-18T05:40:14;26.65;;;9.98;;
54145;SDS011;65909;49.422;7.738;2022-12-18T05:42:39;31.45;;;9.50;;
54145;SDS011;65909;49.422;7.738;2022-12-18T05:45:04;22.90;;;9.43;;
54145;SDS011;65909;49.422;7.738;2022-12-18T05:47:30;23.20;;;9.98;;
54145;SDS011;65909;49.422;7.738;2022-12-18T05:49:56;24.00;;;12.15;;
54145;SDS011;65909;49.422;7.738;2022-12-18T05:52:22;26.30;;;11.52;;
54145;SDS011;65909;49.422;7.738;2022-12-18T05:54:47;23.60;;;9.68;;
54145;SDS011;65909;49.422;7.738;2022-12-18T05:57:13;18.05;;;9.50;;
54145;SDS011;65909;49.422;7.738;2022-12-18T05:59:38;20.50;;;8.80;;
54145;SDS011;65909;49.422;7.738;2022-12-18T06:02:03;19.67;;;9.45;;
54145;SDS011;65909;49.422;7.738;2022-12-18T06:04:29;13.23;;;7.65;;
54145;SDS011;65909;49.422;7.738;2022-12-18T06:06:54;22.25;;;12.35;;
54145;SDS011;65909;49.422;7.738;2022-12-18T06:09:19;11.43;;;6.93;;
54145;SDS011;65909;49.422;7.738;2022-12-18T06:11:45;21.08;;;10.15;;
54145;SDS011;65909;49.422;7.738;2022-12-18T06:14:10;19.67;;;10.20;;
54145;SDS011;65909;49.422;7.738;2022-12-18T06:16:35;20.40;;;10.52;;
54145;SDS011;65909;49.422;7.738;2022-12-18T06:19:02;26.27;;;12.13;;
54145;SDS011;65909;49.422;7.738;2022-12-18T06:21:29;24.20;;;9.90;;
54145;SDS011;65909;49.422;7.738;2022-12-18T06:23:55;17.77;;;8.90;;
54145;SDS011;65909;49.422;7.738;2022-12-18T06:26:20;20.73;;;10.63;;
54145;SDS011;65909;49.422;7.738;2022-12-18T06:28:46;16.35;;;9.00;;
54145;SDS011;65909;49.422;7.738;2022-12-18T06:31:11;21.17;;;10.70;;
54145;SDS011;65909;49.422;7.738;2022-12-18T06:33:37;19.35;;;10.50;;
54145;SDS011;65909;49.422;7.738;2022-12-18T06:36:04;27.65;;;12.13;;
54145;SDS011;65909;49.422;7.738;2022-12-18T06:38:34;24.50;;;10.00;;
54145;SDS011;65909;49.422;7.738;2022-12-18T06:41:08;19.05;;;8.70;;
54145;SDS011;65909;49.422;7.738;2022-12-18T06:43:43;29.35;;;11.63;;
54145;SDS011;65909;49.422;7.738;2022-12-18T06:46:09;23.13;;;10.32;;
54145;SDS011;65909;49.422;7.738;2022-12-18T06:48:35;19.15;;;9.70;;
54145;SDS011;65909;49.422;7.738;2022-12-18T06:51:01;26.52;;;10.60;;
54145;SDS011;65909;49.422;7.738;2022-12-18T06:53:27;22.23;;;11.32;;
54145;SDS011;65909;49.422;7.738;2022-12-18T06:55:58;33.30;;;11.77;;
54145;SDS011;65909;49.422;7.738;2022-12-18T06:58:27;24.70;;;10.95;;
54145;SDS011;65909;49.422;7.738;2022-12-18T07:00:53;15.73;;;11.18;;
54145;SDS011;65909;49.422;7.738;2022-12-18T07:03:18;27.70;;;11.15;;
54145;SDS011;65909;49.422;7.738;2022-12-18T07:05:44;18.83;;;10.18;;
54145;SDS011;65909;49.422;7.738;2022-12-18T07:08:09;25.67;;;10.68;;
54145;SDS011;65909;49.422;7.738;2022-12-18T07:10:40;23.95;;;10.68;;
54145;SDS011;65909;49.422;7.738;2022-12-18T07:13:07;27.15;;;10.98;;
54145;SDS011;65909;49.422;7.738;2022-12-18T07:15:32;27.75;;;11.70;;
54145;SDS011;65909;49.422;7.738;2022-12-18T07:17:58;24.63;;;10.85;;
54145;SDS011;65909;49.422;7.738;2022-12-18T07:20:23;24.08;;;12.90;;
54145;SDS011;65909;49.422;7.738;2022-12-18T07:22:48;22.23;;;10.50;;
54145;SDS011;65909;49.422;7.738;2022-12-18T07:25:14;16.10;;;8.40;;
54145;SDS011;65909;49.422;7.738;2022-12-18T07:27:39;22.42;;;11.25;;
54145;SDS011;65909;49.422;7.738;2022-12-18T07:30:05;23.80;;;9.30;;
54145;SDS011;65909;49.422;7.738;2022-12-18T07:32:31;20.48;;;11.65;;
54145;SDS011;65909;49.422;7.738;2022-12-18T07:34:56;23.00;;;11.40;;
54145;SDS011;65909;49.422;7.738;2022-12-18T07:37:21;20.67;;;9.60;;
54145;SDS011;65909;49.422;7.738;2022-12-18T07:39:47;19.90;;;10.90;;
54145;SDS011;65909;49.422;7.738;2022-12-18T07:42:12;17.10;;;8.45;;
54145;SDS011;65909;49.422;7.738;2022-12-18T07:44:55;29.05;;;10.73;;
54145;SDS011;65909;49.422;7.738;2022-12-18T07:47:21;25.30;;;10.27;;
54145;SDS011;65909;49.422;7.738;2022-12-18T07:49:46;22.77;;;11.40;;
54145;SDS011;65909;49.422;7.738;2022-12-18T07:52:12;14.38;;;7.78;;
54145;SDS011;65909;49.422;7.738;2022-12-18T07:54:37;16.95;;;10.23;;
54145;SDS011;65909;49.422;7.738;2022-12-18T07:57:03;17.67;;;9.35;;
54145;SDS011;65909;49.422;7.738;2022-12-18T07:59:29;22.65;;;12.13;;
54145;SDS011;65909;49.422;7.738;2022-12-18T08:01:54;19.10;;;9.90;;
54145;SDS011;65909;49.422;7.738;2022-12-18T08:04:19;19.48;;;9.38;;
54145;SDS011;65909;49.422;7.738;2022-12-18T08:06:45;26.75;;;11.40;;
54145;SDS011;65909;49.422;7.738;2022-12-18T08:09:10;18.77;;;9.23;;
54145;SDS011;65909;49.422;7.738;2022-12-18T08:11:35;20.90;;;10.32;;
54145;SDS011;65909;49.422;7.738;2022-12-18T08:14:01;21.10;;;9.00;;
54145;SDS011;65909;49.422;7.738;2022-12-18T08:16:26;23.73;;;10.35;;
54145;SDS011;65909;49.422;7.738;2022-12-18T08:18:52;25.85;;;10.48;;
54145;SDS011;65909;49.422;7.738;2022-12-18T08:21:19;30.05;;;12.80;;
54145;SDS011;65909;49.422;7.738;2022-12-18T08:23:49;24.52;;;12.48;;
54145;SDS011;65909;49.422;7.738;2022-12-18T08:26:16;21.08;;;10.77;;
54145;SDS011;65909;49.422;7.738;2022-12-18T08:28:42;19.42;;;10.85;;
54145;SDS011;65909;49.422;7.738;2022-12-18T08:31:07;19.77;;;10.77;;
54145;SDS011;65909;49.422;7.738;2022-12-18T08:33:34;27.00;;;12.45;;
54145;SDS011;65909;49.422;7.738;2022-12-18T08:36:00;24.52;;;12.38;;
54145;SDS011;65909;49.422;7.738;2022-12-18T08:38:26;24.15;;;11.55;;
54145;SDS011;65909;49.422;7.738;2022-12-18T08:41:02;26.88;;;10.85;;
54145;SDS011;65909;49.422;7.738;2022-12-18T08:43:29;24.17;;;11.55;;
54145;SDS011;65909;49.422;7.738;2022-12-18T08:46:13;20.13;;;11.05;;
54145;SDS011;65909;49.422;7.738;2022-12-18T08:48:38;26.92;;;12.02;;
54145;SDS011;65909;49.422;7.738;2022-12-18T08:51:03;24.90;;;12.13;;
54145;SDS011;65909;49.422;7.738;2022-12-18T08:53:29;28.55;;;13.75;;
54145;SDS011;65909;49.422;7.738;2022-12-18T08:55:56;27.42;;;12.95;;
54145;SDS011;65909;49.422;7.738;2022-12-18T08:58:21;30.38;;;13.30;;
54145;SDS011;65909;49.422;7.738;2022-12-18T09:00:47;35.03;;;15.50;;
54145;SDS011;65909;49.422;7.738;2022-12-18T09:03:13;33.95;;;15.60;;
54145;SDS011;65909;49.422;7.738;2022-12-18T09:05:42;31.98;;;15.02;;
54145;SDS011;65909;49.422;7.738;2022-12-18T09:08:07;32.63;;;13.63;;
54145;SDS011;65909;49.422;7.738;2022-12-18T09:10:33;32.22;;;13.55;;
54145;SDS011;65909;49.422;7.738;2022-12-18T09:12:59;26.05;;;13.27;;
54145;SDS011;65909;49.422;7.738;2022-12-18T09:15:25;28.45;;;13.60;;
54145;SDS011;65909;49.422;7.738;2022-12-18T09:17:51;34.72;;;16.00;;
54145;SDS011;65909;49.422;7.738;2022-12-18T09:20:17;29.55;;;14.25;;
54145;SDS011;65909;49.422;7.738;2022-12-18T09:22:43;31.02;;;14.93;;
54145;SDS011;65909;49.422;7.738;2022-12-18T09:25:09;34.85;;;13.98;;
54145;SDS011;65909;49.422;7.738;2022-12-18T09:27:34;27.35;;;13.32;;
54145;SDS011;65909;49.422;7.738;2022-12-18T09:30:00;33.58;;;13.80;;
54145;SDS011;65909;49.422;7.738;2022-12-18T09:32:26;32.53;;;13.68;;
54145;SDS011;65909;49.422;7.738;2022-12-18T09:34:51;31.38;;;14.00;;
54145;SDS011;65909;49.422;7.738;2022-12-18T09:37:17;30.67;;;14.70;;
54145;SDS011;65909;49.422;7.738;2022-12-18T09:39:42;28.35;;;15.15;;
54145;SDS011;65909;49.422;7.738;2022-12-18T09:42:09;31.02;;;16.50;;
54145;SDS011;65909;49.422;7.738;2022-12-18T09:44:45;33.45;;;15.23;;
54145;SDS011;65909;49.422;7.738;2022-12-18T09:49:52;30.83;;;15.57;;
54145;SDS011;65909;49.422;7.738;2022-12-18T09:52:25;28.70;;;14.02;;
54145;SDS011;65909;49.422;7.738;2022-12-18T09:55:00;26.45;;;14.30;;
54145;SDS011;65909;49.422;7.738;2022-12-18T09:57:33;29.40;;;15.60;;
54145;SDS011;65909;49.422;7.738;2022-12-18T10:00:14;30.48;;;13.25;;
54145;SDS011;65909;49.422;7.738;2022-12-18T10:02:43;36.13;;;15.38;;
54145;SDS011;65909;49.422;7.738;2022-12-18T10:05:10;36.53;;;17.73;;
54145;SDS011;65909;49.422;7.738;2022-12-18T10:07:47;31.75;;;15.93;;
54145;SDS011;65909;49.422;7.738;2022-12-18T10:13:00;27.20;;;14.57;;
54145;SDS011;65909;49.422;7.738;2022-12-18T10:15:47;29.73;;;14.73;;
54145;SDS011;65909;49.422;7.738;2022-12-18T10:20:55;31.10;;;17.63;;
54145;SDS011;65909;49.422;7.738;2022-12-18T10:23:30;31.27;;;15.70;;
54145;SDS011;65909;49.422;7.738;2022-12-18T10:26:05;26.80;;;14.90;;
54145;SDS011;65909;49.422;7.738;2022-12-18T10:28:33;29.70;;;16.52;;
54145;SDS011;65909;49.422;7.738;2022-12-18T10:31:00;26.38;;;14.05;;
54145;SDS011;65909;49.422;7.738;2022-12-18T10:33:29;38.15;;;16.83;;
54145;SDS011;65909;49.422;7.738;2022-12-18T10:35:56;32.72;;;16.27;;
54145;SDS011;65909;49.422;7.738;2022-12-18T10:38:29;31.83;;;14.18;;
54145;SDS011;65909;49.422;7.738;2022-12-18T10:41:04;34.03;;;16.30;;
54145;SDS011;65909;49.422;7.738;2022-12-18T10:43:35;30.80;;;16.42;;
54145;SDS011;65909;49.422;7.738;2022-12-18T10:48:33;36.92;;;17.92;;
54145;SDS011;65909;49.422;7.738;2022-12-18T10:51:21;34.00;;;20.23;;
54145;SDS011;65909;49.422;7.738;2022-12-18T10:54:03;36.03;;;17.10;;
54145;SDS011;65909;49.422;7.738;2022-12-18T10:56:39;29.95;;;16.45;;
54145;SDS011;65909;49.422;7.738;2022-12-18T10:59:10;32.03;;;18.65;;
54145;SDS011;65909;49.422;7.738;2022-12-18T11:01:48;40.08;;;21.23;;
54145;SDS011;65909;49.422;7.738;2022-12-18T11:04:32;31.20;;;16.93;;
54145;SDS011;65909;49.422;7.738;2022-12-18T11:07:05;37.08;;;16.15;;
54145;SDS011;65909;49.422;7.738;2022-12-18T11:09:36;32.45;;;16.95;;
54145;SDS011;65909;49.422;7.738;2022-12-18T11:12:15;41.65;;;19.58;;
54145;SDS011;65909;49.422;7.738;2022-12-18T11:17:32;37.42;;;18.95;;
54145;SDS011;65909;49.422;7.738;2022-12-18T11:20:00;38.85;;;18.50;;
54145;SDS011;65909;49.422;7.738;2022-12-18T11:22:29;37.85;;;16.33;;
54145;SDS011;65909;49.422;7.738;2022-12-18T11:24:57;38.95;;;20.40;;
54145;SDS011;65909;49.422;7.738;2022-12-18T11:27:26;40.05;;;18.98;;
54145;SDS011;65909;49.422;7.738;2022-12-18T11:30:06;28.27;;;13.70;;
54145;SDS011;65909;49.422;7.738;2022-12-18T11:32:47;35.00;;;14.80;;
54145;SDS011;65909;49.422;7.738;2022-12-18T11:37:58;33.53;;;18.02;;
54145;SDS011;65909;49.422;7.738;2022-12-18T11:40:33;38.97;;;16.85;;
54145;SDS011;65909;49.422;7.738;2022-12-18T11:43:06;32.30;;;15.70;;
54145;SDS011;65909;49.422;7.738;2022-12-18T11:45:43;36.35;;;18.25;;
54145;SDS011;65909;49.422;7.738;2022-12-18T11:48:16;39.50;;;19.38;;
54145;SDS011;65909;49.422;7.738;2022-12-18T11:53:19;35.15;;;15.80;;
54145;SDS011;65909;49.422;7.738;2022-12-18T11:55:48;42.47;;;19.52;;
54145;SDS011;65909;49.422;7.738;2022-12-18T11:58:47;37.53;;;17.92;;
54145;SDS011;65909;49.422;7.738;2022-12-18T12:01:35;37.60;;;17.08;;
54145;SDS011;65909;49.422;7.738;2022-12-18T12:20:57;29.77;;;14.02;;
54145;SDS011;65909;49.422;7.738;2022-12-18T12:23:44;31.02;;;16.08;;
54145;SDS011;65909;49.422;7.738;2022-12-18T12:26:11;36.58;;;17.70;;
54145;SDS011;65909;49.422;7.738;2022-12-18T12:40:50;31.58;;;14.90;;
54145;SDS011;65909;49.422;7.738;2022-12-18T12:43:31;32.85;;;15.43;;
54145;SDS011;65909;49.422;7.738;2022-12-18T12:46:04;39.50;;;18.23;;
54145;SDS011;65909;49.422;7.738;2022-12-18T12:53:37;41.95;;;16.88;;
54145;SDS011;65909;49.422;7.738;2022-12-18T12:56:04;45.55;;;21.08;;
54145;SDS011;65909;49.422;7.738;2022-12-18T12:58:34;39.65;;;17.08;;
54145;SDS011;65909;49.422;7.738;2022-12-18T13:03:49;38.88;;;18.23;;
54145;SDS011;65909;49.422;7.738;2022-12-18T13:09:22;43.92;;;19.17;;
54145;SDS011;65909;49.422;7.738;2022-12-18T13:11:47;39.60;;;16.45;;
54145;SDS011;65909;49.422;7.738;2022-12-18T13:19:44;45.97;;;17.15;;
54145;SDS011;65909;49.422;7.738;2022-12-18T13:22:22;42.67;;;17.35;;
54145;SDS011;65909;49.422;7.738;2022-12-18T13:24:50;41.47;;;17.48;;
54145;SDS011;65909;49.422;7.738;2022-12-18T13:33:41;36.80;;;15.55;;
54145;SDS011;65909;49.422;7.738;2022-12-18T13:38:21;43.13;;;18.17;;
54145;SDS011;65909;49.422;7.738;2022-12-18T13:43:35;33.92;;;14.77;;
54145;SDS011;65909;49.422;7.738;2022-12-18T13:46:04;41.13;;;16.92;;
54145;SDS011;65909;49.422;7.738;2022-12-18T13:48:41;45.95;;;20.77;;
54145;SDS011;65909;49.422;7.738;2022-12-18T13:51:17;33.92;;;16.15;;
54145;SDS011;65909;49.422;7.738;2022-12-18T13:53:46;37.00;;;16.45;;
54145;SDS011;65909;49.422;7.738;2022-12-18T13:56:20;43.03;;;16.55;;
54145;SDS011;65909;49.422;7.738;2022-12-18T13:59:05;33.83;;;16.23;;
54145;SDS011;65909;49.422;7.738;2022-12-18T14:01:36;26.65;;;12.45;;
54145;SDS011;65909;49.422;7.738;2022-12-18T14:04:08;26.05;;;11.85;;
54145;SDS011;65909;49.422;7.738;2022-12-18T14:06:35;38.07;;;15.83;;
54145;SDS011;65909;49.422;7.738;2022-12-18T14:09:00;36.35;;;13.48;;
54145;SDS011;65909;49.422;7.738;2022-12-18T14:11:27;33.85;;;14.70;;
54145;SDS011;65909;49.422;7.738;2022-12-18T14:13:54;34.53;;;13.23;;
54145;SDS011;65909;49.422;7.738;2022-12-18T14:16:19;36.88;;;14.68;;
54145;SDS011;65909;49.422;7.738;2022-12-18T14:21:30;24.92;;;11.27;;
54145;SDS011;65909;49.422;7.738;2022-12-18T14:24:18;39.08;;;15.70;;
54145;SDS011;65909;49.422;7.738;2022-12-18T14:26:45;37.65;;;14.90;;
54145;SDS011;65909;49.422;7.738;2022-12-18T14:34:42;36.92;;;15.68;;
54145;SDS011;65909;49.422;7.738;2022-12-18T14:37:16;34.88;;;16.83;;
54145;SDS011;65909;49.422;7.738;2022-12-18T14:39:55;38.97;;;14.90;;
54145;SDS011;65909;49.422;7.738;2022-12-18T14:42:25;32.28;;;15.73;;
54145;SDS011;65909;49.422;7.738;2022-12-18T14:45:31;29.10;;;13.23;;
54145;SDS011;65909;49.422;7.738;2022-12-18T14:47:56;39.70;;;15.52;;
54145;SDS011;65909;49.422;7.738;2022-12-18T14:50:22;35.88;;;14.35;;
54145;SDS011;65909;49.422;7.738;2022-12-18T14:52:47;37.58;;;16.35;;
54145;SDS011;65909;49.422;7.738;2022-12-18T14:55:16;40.47;;;16.25;;
54145;SDS011;65909;49.422;7.738;2022-12-18T14:57:43;38.03;;;16.33;;
54145;SDS011;65909;49.422;7.738;2022-12-18T15:00:16;45.08;;;15.93;;
54145;SDS011;65909;49.422;7.738;2022-12-18T15:02:43;32.03;;;14.88;;
54145;SDS011;65909;49.422;7.738;2022-12-18T15:07:50;39.80;;;16.05;;
54145;SDS011;65909;49.422;7.738;2022-12-18T15:10:18;40.75;;;17.17;;
54145;SDS011;65909;49.422;7.738;2022-12-18T15:12:50;41.97;;;17.15;;
54145;SDS011;65909;49.422;7.738;2022-12-18T15:20:42;39.50;;;17.05;;
54145;SDS011;65909;49.422;7.738;2022-12-18T15:23:13;41.92;;;15.85;;
54145;SDS011;65909;49.422;7.738;2022-12-18T15:25:40;33.55;;;15.15;;
54145;SDS011;65909;49.422;7.738;2022-12-18T15:31:02;82.57;;;28.00;;
54145;SDS011;65909;49.422;7.738;2022-12-18T15:33:30;47.33;;;17.70;;
54145;SDS011;65909;49.422;7.738;2022-12-18T15:36:02;40.15;;;17.00;;
54145;SDS011;65909;49.422;7.738;2022-12-18T15:38:29;34.03;;;15.43;;
54145;SDS011;65909;49.422;7.738;2022-12-18T15:40:54;36.90;;;13.95;;
54145;SDS011;65909;49.422;7.738;2022-12-18T15:43:21;38.95;;;16.63;;
54145;SDS011;65909;49.422;7.738;2022-12-18T15:46:00;34.80;;;16.30;;
54145;SDS011;65909;49.422;7.738;2022-12-18T15:48:31;38.63;;;16.08;;
54145;SDS011;65909;49.422;7.738;2022-12-18T15:50:58;34.67;;;14.70;;
54145;SDS011;65909;49.422;7.738;2022-12-18T15:53:24;36.08;;;15.70;;
54145;SDS011;65909;49.422;7.738;2022-12-18T15:55:52;45.85;;;16.75;;
54145;SDS011;65909;49.422;7.738;2022-12-18T15:58:36;32.13;;;14.95;;
54145;SDS011;65909;49.422;7.738;2022-12-18T16:01:02;36.13;;;15.20;;
54145;SDS011;65909;49.422;7.738;2022-12-18T16:03:27;34.08;;;16.27;;
54145;SDS011;65909;49.422;7.738;2022-12-18T16:05:52;32.17;;;14.40;;
54145;SDS011;65909;49.422;7.738;2022-12-18T16:08:18;35.38;;;15.32;;
54145;SDS011;65909;49.422;7.738;2022-12-18T16:10:43;40.22;;;16.17;;
54145;SDS011;65909;49.422;7.738;2022-12-18T16:13:10;44.92;;;17.70;;
54145;SDS011;65909;49.422;7.738;2022-12-18T16:15:36;34.30;;;15.15;;
54145;SDS011;65909;49.422;7.738;2022-12-18T16:18:01;35.75;;;15.07;;
54145;SDS011;65909;49.422;7.738;2022-12-18T16:20:27;36.28;;;15.48;;
54145;SDS011;65909;49.422;7.738;2022-12-18T16:22:52;43.70;;;16.20;;
54145;SDS011;65909;49.422;7.738;2022-12-18T16:25:21;34.15;;;14.95;;
54145;SDS011;65909;49.422;7.738;2022-12-18T16:27:51;37.35;;;16.63;;